Time;durP1;ratioP1;P1;durP2;ratioP2;P2;SDS_P1;SDS_P2;PMS_P1;PMS_P2;Temp;Humidity;BMP_temperature;BMP_pressure;BME280_temperature;BME280_humidity;BME280_pressure;Samples;Min_cycle;Max_cycle;Signal;HPM_P1;HPM_P2
2024/03/19 00:00:28;;;;;;;10.80;7.50;;;;;;;3.20;100.00;99599.95;86902;273;136348;-72
2024/03/19 00:02:29;;;;;;;7.50;6.50;;;;;;;3.24;100.00;99598.41;86931;274;22567;-75
2024/03/19 00:04:30;;;;;;;21.80;12.70;;;;;;;3.27;100.00;99592.89;86925;280;136993;-74
2024/03/19 00:06:33;;;;;;;30.20;16.30;;;;;;;3.29;100.00;99584.23;86909;279;24020;-74
2024/03/19 00:08:34;;;;;;;50.30;27.10;;;;;;;3.30;100.00;99586.71;86892;265;136929;-74
2024/03/19 00:10:34;;;;;;;49.50;26.60;;;;;;;3.34;100.00;99590.29;86916;273;25181;-75
2024/03/19 00:12:35;;;;;;;41.30;21.70;;;;;;;3.36;100.00;99587.71;86842;280;136676;-75
2024/03/19 00:14:36;;;;;;;35.70;20.50;;;;;;;3.39;100.00;99588.35;86994;274;22550;-74
2024/03/19 00:16:36;;;;;;;29.10;16.30;;;;;;;3.40;100.00;99587.56;86852;268;137085;-73
2024/03/19 00:18:37;;;;;;;20.10;12.00;;;;;;;3.42;100.00;99589.97;87017;276;23932;-73
2024/03/19 00:20:38;;;;;;;18.40;11.10;;;;;;;3.43;100.00;99584.77;86885;274;136532;-75
2024/03/19 00:22:39;;;;;;;19.90;12.80;;;;;;;3.45;100.00;99588.01;87007;281;22575;-72
2024/03/19 00:24:40;;;;;;;15.30;10.60;;;;;;;3.49;100.00;99590.13;86905;274;139520;-74
2024/03/19 00:26:41;;;;;;;15.40;9.20;;;;;;;3.51;100.00;99587.40;87105;279;23674;-72
2024/03/19 00:28:42;;;;;;;11.90;9.10;;;;;;;3.54;100.00;99580.59;86948;280;137233;-75
2024/03/19 00:30:44;;;;;;;13.40;8.80;;;;;;;3.59;100.00;99576.35;87124;275;25325;-74
2024/03/19 00:32:45;;;;;;;13.80;9.50;;;;;;;3.69;100.00;99583.61;87808;277;136927;-74
2024/03/19 00:34:47;;;;;;;8.30;7.30;;;;;;;3.77;100.00;99588.08;89181;269;22929;-73
2024/03/19 00:36:48;;;;;;;8.30;7.40;;;;;;;3.86;100.00;99584.75;88991;277;136091;-73
2024/03/19 00:38:49;;;;;;;10.60;8.80;;;;;;;3.94;100.00;99585.39;88172;275;22532;-74
2024/03/19 00:40:51;;;;;;;10.40;8.40;;;;;;;4.00;100.00;99584.73;87395;277;136225;-74
2024/03/19 00:42:51;;;;;;;10.60;8.70;;;;;;;4.04;100.00;99583.38;87630;273;22550;-75
2024/03/19 00:44:52;;;;;;;10.70;9.00;;;;;;;4.07;100.00;99582.69;87804;268;137412;-76
2024/03/19 00:46:57;;;;;;;14.80;10.80;;;;;;;4.12;100.00;99585.23;88677;278;22631;-72
2024/03/19 00:48:59;;;;;;;9.70;8.30;;;;;;;4.14;100.00;99585.45;88007;268;136916;-75
2024/03/19 00:51:00;;;;;;;14.60;11.60;;;;;;;4.19;100.00;99591.50;87051;273;22575;-75
2024/03/19 00:53:01;;;;;;;17.80;13.50;;;;;;;4.20;100.00;99589.79;86917;269;137072;-75
2024/03/19 00:55:04;;;;;;;17.60;13.70;;;;;;;4.21;100.00;99592.61;87129;274;22554;-76
2024/03/19 00:57:04;;;;;;;18.70;14.00;;;;;;;4.22;100.00;99582.84;87004;273;136930;-74
2024/03/19 00:59:06;;;;;;;19.20;14.50;;;;;;;4.21;100.00;99582.39;87024;265;22686;-75
2024/03/19 01:01:06;;;;;;;17.40;13.20;;;;;;;4.23;100.00;99581.92;86977;273;138781;-75
2024/03/19 01:03:08;;;;;;;16.00;13.20;;;;;;;4.22;100.00;99584.80;87055;272;23027;-75
2024/03/19 01:05:13;;;;;;;18.80;14.50;;;;;;;4.18;100.00;99582.20;86889;277;137842;-73
2024/03/19 01:07:15;;;;;;;;;;;;;;;4.17;100.00;99590.48;87443;273;25194;-75
2024/03/19 01:09:18;;;;;;;18.60;14.10;;;;;;;4.14;100.00;99592.00;86974;272;123078;-74
2024/03/19 01:11:19;;;;;;;21.20;14.20;;;;;;;4.10;100.00;99592.75;87110;276;24039;-76
2024/03/19 01:13:19;;;;;;;17.00;12.60;;;;;;;4.07;100.00;99591.69;86902;271;136980;-75
2024/03/19 01:15:20;;;;;;;13.50;12.10;;;;;;;4.01;100.00;99596.86;87054;268;25204;-74
2024/03/19 01:17:22;;;;;;;12.20;11.00;;;;;;;3.98;100.00;99594.74;86915;272;138295;-73
2024/03/19 01:19:23;;;;;;;12.80;11.30;;;;;;;3.94;100.00;99601.54;86929;273;22606;-74
2024/03/19 01:21:23;;;;;;;9.80;8.60;;;;;;;3.86;100.00;99609.54;86769;266;137522;-74
2024/03/19 01:23:24;;;;;;;11.30;10.10;;;;;;;3.80;100.00;99614.73;86990;277;23703;-72
2024/03/19 01:25:25;;;;;;;12.80;11.00;;;;;;;3.78;100.00;99616.73;86894;273;136584;-74
2024/03/19 01:27:26;;;;;;;9.10;8.10;;;;;;;3.73;100.00;99604.41;87023;273;22557;-74
2024/03/19 01:29:27;;;;;;;10.60;9.30;;;;;;;3.65;100.00;99604.74;86837;271;137647;-74
2024/03/19 01:31:29;;;;;;;11.50;9.60;;;;;;;3.61;100.00;99614.60;86892;272;22559;-75
2024/03/19 01:33:29;;;;;;;9.70;8.00;;;;;;;3.58;100.00;99613.89;86892;280;137695;-73
2024/03/19 01:35:30;;;;;;;11.00;9.20;;;;;;;3.56;100.00;99611.61;86927;273;24021;-74
2024/03/19 01:37:31;;;;;;;9.80;8.50;;;;;;;3.55;100.00;99613.16;86839;272;136972;-74
2024/03/19 01:39:32;;;;;;;11.00;9.40;;;;;;;3.45;100.00;99614.00;86952;269;22932;-75
2024/03/19 01:41:33;;;;;;;11.90;9.70;;;;;;;3.41;100.00;99615.71;86844;281;136974;-72
2024/03/19 01:43:33;;;;;;;11.90;10.40;;;;;;;3.35;100.00;99626.27;86952;268;22563;-72
2024/03/19 01:45:34;;;;;;;13.70;11.20;;;;;;;3.31;100.00;99624.82;87010;267;137342;-74
2024/03/19 01:47:35;;;;;;;12.20;10.00;;;;;;;3.28;100.00;99624.77;87119;282;22714;-73
2024/03/19 01:49:36;;;;;;;10.00;8.90;;;;;;;3.23;100.00;99630.73;86798;281;138122;-72
2024/03/19 01:51:37;;;;;;;11.90;10.10;;;;;;;3.15;100.00;99630.14;87199;272;22680;-74
2024/03/19 01:53:38;;;;;;;14.20;11.30;;;;;;;3.07;100.00;99626.88;86996;271;136861;-72
2024/03/19 01:55:39;;;;;;;12.90;10.30;;;;;;;2.98;100.00;99626.41;87195;272;25223;-73
2024/03/19 01:57:42;;;;;;;13.80;10.60;;;;;;;2.87;100.00;99629.05;87085;279;137009;-74
2024/03/19 01:59:43;;;;;;;12.50;10.60;;;;;;;2.79;100.00;99635.68;87174;268;22587;-73
2024/03/19 02:01:44;;;;;;;11.40;10.00;;;;;;;2.75;100.00;99632.09;87120;276;138462;-74
2024/03/19 02:03:45;;;;;;;14.20;11.10;;;;;;;2.69;100.00;99626.70;87058;280;22977;-74
2024/03/19 02:05:46;;;;;;;11.70;9.60;;;;;;;2.59;100.00;99638.05;86996;280;136936;-75
2024/03/19 02:07:47;;;;;;;11.00;9.90;;;;;;;2.52;100.00;99644.73;87022;277;22697;-74
2024/03/19 02:09:49;;;;;;;11.30;9.90;;;;;;;2.48;100.00;99644.38;86981;272;136763;-75
2024/03/19 02:11:50;;;;;;;14.50;12.10;;;;;;;2.47;100.00;99650.65;87182;280;22567;-74
2024/03/19 02:13:51;;;;;;;14.30;12.10;;;;;;;2.47;100.00;99648.05;86995;271;136756;-75
2024/03/19 02:15:53;;;;;;;16.40;13.50;;;;;;;2.45;100.00;99655.54;87071;273;22563;-74
2024/03/19 02:17:53;;;;;;;18.60;14.60;;;;;;;2.44;100.00;99666.34;86990;277;136161;-73
2024/03/19 02:19:54;;;;;;;18.30;13.50;;;;;;;2.45;100.00;99657.17;86977;273;22559;-73
2024/03/19 02:21:55;;;;;;;19.20;15.40;;;;;;;2.43;100.00;99653.50;87029;270;136514;-73
2024/03/19 02:23:57;;;;;;;15.60;11.50;;;;;;;2.39;100.00;99660.02;87091;263;24888;-72
2024/03/19 02:25:57;;;;;;;19.50;15.00;;;;;;;2.33;100.00;99650.84;87150;272;136673;-74
2024/03/19 02:27:58;;;;;;;20.10;15.20;;;;;;;2.30;100.00;99647.06;87074;265;22573;-76
2024/03/19 02:29:59;;;;;;;20.60;15.30;;;;;;;2.30;100.00;99651.41;86878;272;138018;-73
2024/03/19 02:32:00;;;;;;;15.30;12.50;;;;;;;2.32;100.00;99648.03;86965;280;24026;-74
2024/03/19 02:34:01;;;;;;;15.00;11.60;;;;;;;2.31;100.00;99650.30;87117;270;138268;-75
2024/03/19 02:36:01;;;;;;;18.10;14.60;;;;;;;2.27;100.00;99649.43;86971;276;22562;-75
2024/03/19 02:38:02;;;;;;;13.40;9.60;;;;;;;2.26;100.00;99652.71;86811;280;136534;-75
2024/03/19 02:40:05;;;;;;;8.50;7.60;;;;;;;2.26;100.00;99667.11;86960;269;136827;-75
2024/03/19 02:42:05;;;;;;;6.60;5.90;;;;;;;2.27;100.00;99673.98;87144;271;25107;-74
2024/03/19 02:44:07;;;;;;;7.50;6.10;;;;;;;2.27;100.00;99666.65;86945;276;137078;-75
2024/03/19 02:46:07;;;;;;;7.60;6.90;;;;;;;2.26;100.00;99661.98;87098;270;22519;-76
2024/03/19 02:48:08;;;;;;;6.30;5.70;;;;;;;2.23;100.00;99670.77;86904;272;136499;-75
2024/03/19 02:50:09;;;;;;;5.20;4.70;;;;;;;2.19;100.00;99671.63;87029;273;22589;-75
2024/03/19 02:52:10;;;;;;;5.00;4.50;;;;;;;2.19;100.00;99681.65;86937;289;136305;-74
2024/03/19 02:54:11;;;;;;;5.90;5.40;;;;;;;2.17;100.00;99677.61;87852;273;24023;-73
2024/03/19 02:56:12;;;;;;;6.10;5.60;;;;;;;2.16;100.00;99679.99;86893;270;136666;-76
2024/03/19 02:58:13;;;;;;;7.30;6.60;;;;;;;2.14;100.00;99680.73;87085;280;25111;-74
2024/03/19 03:00:14;;;;;;;8.00;7.20;;;;;;;2.12;100.00;99686.45;86969;279;136825;-75
2024/03/19 03:02:14;;;;;;;6.00;5.50;;;;;;;2.12;100.00;99688.45;87039;281;22978;-72
2024/03/19 03:04:15;;;;;;;7.10;6.50;;;;;;;2.11;100.00;99689.09;86939;280;136994;-74
2024/03/19 03:06:16;;;;;;;7.30;6.70;;;;;;;2.09;100.00;99692.07;86981;273;22573;-74
2024/03/19 03:08:16;;;;;;;5.10;4.70;;;;;;;2.08;100.00;99692.05;86965;280;136746;-74
2024/03/19 03:10:17;;;;;;;5.80;5.20;;;;;;;2.05;100.00;99692.75;87038;273;22573;-77
2024/03/19 03:12:18;;;;;;;6.80;5.00;;;;;;;2.01;100.00;99691.27;87101;281;137815;-75
2024/03/19 03:14:18;;;;;;;7.10;6.40;;;;;;;1.94;100.00;99688.80;87024;272;22706;-75
2024/03/19 03:16:19;;;;;;;6.30;5.70;;;;;;;1.92;100.00;99696.85;86873;268;136736;-72
2024/03/19 03:18:20;;;;;;;5.00;4.70;;;;;;;1.91;100.00;99697.31;86971;273;22617;-74
2024/03/19 03:20:21;;;;;;;6.00;5.50;;;;;;;1.93;100.00;99697.63;86946;273;136902;-74
2024/03/19 03:22:22;;;;;;;4.40;4.00;;;;;;;1.93;100.00;99704.27;86934;271;23825;-74
2024/03/19 03:24:22;;;;;;;5.40;4.80;;;;;;;1.94;100.00;99709.42;86927;273;136672;-74
2024/03/19 03:26:23;;;;;;;3.60;3.30;;;;;;;1.94;100.00;99712.98;87020;273;24071;-74
2024/03/19 03:28:24;;;;;;;3.00;2.80;;;;;;;1.94;100.00;99713.85;86933;269;136277;-75
2024/03/19 03:30:26;;;;;;;3.40;3.20;;;;;;;1.95;100.00;99729.73;87041;277;22681;-75
2024/03/19 03:32:27;;;;;;;3.40;3.20;;;;;;;1.93;100.00;99722.33;87086;269;135978;-73
2024/03/19 03:34:31;;;;;;;3.10;2.90;;;;;;;1.91;100.00;99725.89;87111;280;22974;-73
2024/03/19 03:36:31;;;;;;;3.50;3.20;;;;;;;1.88;100.00;99721.75;87108;277;136403;-73
2024/03/19 03:38:32;;;;;;;2.80;2.60;;;;;;;1.85;100.00;99724.40;87096;281;22565;-74
2024/03/19 03:40:33;;;;;;;3.20;2.90;;;;;;;1.83;100.00;99731.41;87053;269;136938;-75
2024/03/19 03:42:34;;;;;;;3.70;3.40;;;;;;;1.83;100.00;99724.21;87083;273;22716;-74
2024/03/19 03:44:34;;;;;;;3.20;2.90;;;;;;;1.83;100.00;99736.77;86862;277;136769;-73
2024/03/19 03:46:35;;;;;;;3.50;3.20;;;;;;;1.85;100.00;99740.64;87002;273;22657;-76
2024/03/19 03:48:36;;;;;;;2.40;2.20;;;;;;;1.86;100.00;99744.02;86895;273;137149;-75
2024/03/19 03:53:05;;;;;;;3.20;3.00;;;;;;;1.77;100.00;99745.10;84978;302;602835;-76
2024/03/19 03:55:07;;;;;;;2.80;2.60;;;;;;;1.79;100.00;99754.59;86292;291;22570;-74
2024/03/19 03:57:08;;;;;;;2.90;2.70;;;;;;;1.79;100.00;99754.52;88431;287;137710;-75
2024/03/19 03:59:09;;;;;;;3.30;3.10;;;;;;;1.80;100.00;99756.73;86108;288;22563;-75
2024/03/19 04:01:09;;;;;;;3.40;3.20;;;;;;;1.79;100.00;99753.48;86147;290;135322;-74
2024/03/19 04:03:10;;;;;;;3.30;3.00;;;;;;;1.76;100.00;99760.63;86431;288;22634;-75
2024/03/19 04:05:12;;;;;;;6.30;4.20;;;;;;;1.73;100.00;99758.27;86244;281;136152;-73
2024/03/19 04:07:13;;;;;;;3.50;3.10;;;;;;;1.73;100.00;99763.52;85847;286;876279;-73
2024/03/19 04:09:14;;;;;;;2.70;2.60;;;;;;;1.73;100.00;99763.10;86403;284;136510;-74
2024/03/19 04:11:15;;;;;;;2.70;2.50;;;;;;;1.77;100.00;99764.02;86856;274;22568;-75
2024/03/19 04:13:16;;;;;;;3.50;2.70;;;;;;;1.80;100.00;99770.17;86874;278;136391;-75
2024/03/19 04:15:16;;;;;;;4.10;3.20;;;;;;;1.82;100.00;99779.44;86858;275;25139;-74
2024/03/19 04:17:17;;;;;;;3.40;2.10;;;;;;;1.84;100.00;99784.16;86946;282;135941;-73
2024/03/19 04:19:18;;;;;;;2.40;2.20;;;;;;;1.78;100.00;99790.25;86952;283;22573;-73
2024/03/19 04:21:18;;;;;;;3.90;2.80;;;;;;;1.74;100.00;99796.48;86942;275;136244;-73
2024/03/19 04:23:19;;;;;;;2.30;2.20;;;;;;;1.70;100.00;99797.58;86870;276;24030;-74
2024/03/19 04:25:20;;;;;;;2.30;2.10;;;;;;;1.71;100.00;99800.30;86838;281;135942;-76
2024/03/19 04:27:21;;;;;;;2.60;2.40;;;;;;;1.75;100.00;99799.05;87055;281;22574;-74
2024/03/19 04:29:21;;;;;;;2.80;2.60;;;;;;;1.78;100.00;99803.67;86791;276;136405;-76
2024/03/19 04:31:22;;;;;;;3.50;3.20;;;;;;;1.80;100.00;99804.73;87185;274;26255;-75
2024/03/19 04:33:24;;;;;;;3.30;3.00;;;;;;;1.83;100.00;99800.04;86859;274;136101;-75
2024/03/19 04:35:24;;;;;;;3.30;3.00;;;;;;;1.81;100.00;99805.02;87206;266;22562;-73
2024/03/19 04:37:27;;;;;;;5.70;5.00;;;;;;;1.78;100.00;99801.25;86877;281;136288;-74
2024/03/19 04:39:27;;;;;;;6.80;4.90;;;;;;;1.80;100.00;99805.81;86968;283;22570;-74
2024/03/19 04:41:29;;;;;;;5.40;4.90;;;;;;;1.84;100.00;99815.40;86794;275;136795;-73
2024/03/19 04:43:30;;;;;;;5.80;5.10;;;;;;;1.86;100.00;99811.48;86911;275;22709;-75
2024/03/19 04:45:31;;;;;;;9.30;7.80;;;;;;;1.90;100.00;99812.73;86899;278;137159;-75
2024/03/19 04:47:32;;;;;;;12.10;7.80;;;;;;;1.93;100.00;99818.39;87093;274;24016;-74
2024/03/19 04:49:33;;;;;;;9.90;7.60;;;;;;;1.94;100.00;99833.48;86911;266;135846;-74
2024/03/19 04:51:34;;;;;;;10.80;7.50;;;;;;;1.92;100.00;99832.87;87036;274;22578;-74
2024/03/19 04:53:34;;;;;;;7.60;6.80;;;;;;;1.84;100.00;99826.45;86879;270;136223;-77
2024/03/19 04:55:35;;;;;;;11.10;7.40;;;;;;;1.83;100.00;99832.80;86920;275;26098;-75
2024/03/19 04:57:36;;;;;;;11.40;8.10;;;;;;;1.83;100.00;99839.45;87024;277;137046;-77
2024/03/19 04:59:36;;;;;;;13.70;7.40;;;;;;;1.82;100.00;99842.54;87169;280;25259;-75
2024/03/19 05:01:37;;;;;;;9.40;7.00;;;;;;;1.78;100.00;99842.61;86979;281;136228;-75
2024/03/19 05:03:38;;;;;;;14.90;7.10;;;;;;;1.78;100.00;99845.02;86957;282;25221;-76
2024/03/19 05:05:39;;;;;;;8.20;6.20;;;;;;;1.80;100.00;99851.17;86994;272;136289;-77
2024/03/19 05:07:41;;;;;;;13.00;7.10;;;;;;;1.79;100.00;99853.17;87241;274;24053;-78
2024/03/19 05:09:41;;;;;;;9.40;6.90;;;;;;;1.79;100.00;99854.77;87191;278;136225;-75
2024/03/19 05:11:42;;;;;;;11.40;8.10;;;;;;;1.77;100.00;99860.22;86761;275;22584;-77
2024/03/19 05:13:43;;;;;;;8.00;7.20;;;;;;;1.79;100.00;99866.36;86574;275;136328;-75
2024/03/19 05:15:44;;;;;;;9.70;7.00;;;;;;;1.76;100.00;99865.48;86770;270;24948;-75
2024/03/19 05:17:44;;;;;;;9.00;7.80;;;;;;;1.80;100.00;99863.55;86723;275;136533;-75
2024/03/19 05:19:45;;;;;;;12.40;8.50;;;;;;;1.82;100.00;99868.77;86922;270;22548;-75
2024/03/19 05:21:46;;;;;;;10.70;8.50;;;;;;;1.85;100.00;99866.13;86802;274;136614;-76
2024/03/19 05:23:47;;;;;;;9.30;8.20;;;;;;;1.86;100.00;99870.38;86837;278;25192;-74
2024/03/19 05:25:47;;;;;;;11.40;6.20;;;;;;;1.87;100.00;99873.23;86741;282;135986;-76
2024/03/19 05:27:48;;;;;;;10.00;8.10;;;;;;;1.87;100.00;99872.79;87016;276;22655;-75
2024/03/19 05:29:49;;;;;;;9.30;7.00;;;;;;;1.87;100.00;99873.12;87034;276;135831;-77
2024/03/19 05:31:50;;;;;;;9.30;8.40;;;;;;;1.90;100.00;99875.59;87566;278;25111;-73
2024/03/19 05:33:54;;;;;;;8.20;7.50;;;;;;;1.93;100.00;99878.98;86988;271;137066;-75
2024/03/19 05:35:55;;;;;;;9.10;7.30;;;;;;;1.95;100.00;99885.45;87338;275;22638;-73
2024/03/19 05:37:56;;;;;;;8.60;7.80;;;;;;;2.00;100.00;99888.89;87129;270;135977;-73
2024/03/19 05:39:56;;;;;;;9.30;8.40;;;;;;;2.02;100.00;99891.52;87294;271;25266;-73
2024/03/19 05:41:57;;;;;;;10.80;8.30;;;;;;;2.02;100.00;99898.33;87062;266;135786;-72
2024/03/19 05:43:57;;;;;;;7.30;6.70;;;;;;;2.02;100.00;99914.46;87135;280;22554;-76
2024/03/19 05:45:58;;;;;;;8.50;7.60;;;;;;;2.01;100.00;99918.95;87010;271;135949;-74
2024/03/19 05:48:02;;;;;;;9.80;8.80;;;;;;;2.00;100.00;99923.39;87157;274;24130;-73
2024/03/19 05:50:04;;;;;;;10.70;9.00;;;;;;;2.04;100.00;99940.90;87236;271;22547;-76
2024/03/19 05:52:06;;;;;;;9.60;7.40;;;;;;;2.07;100.00;99944.11;87206;272;136139;-73
2024/03/19 05:54:08;;;;;;;11.70;8.80;;;;;;;2.10;100.00;99947.50;87185;271;22836;-76
2024/03/19 05:56:08;;;;;;;8.70;7.90;;;;;;;2.13;100.00;99947.38;87088;270;136219;-73
2024/03/19 05:58:09;;;;;;;8.50;7.60;;;;;;;2.18;100.00;99947.00;87263;279;22611;-73
2024/03/19 06:00:13;;;;;;;8.70;7.80;;;;;;;2.19;100.00;99949.86;86936;268;136695;-76
2024/03/19 06:02:14;;;;;;;9.30;8.50;;;;;;;2.21;100.00;99957.27;87151;276;22568;-74
2024/03/19 06:04:15;;;;;;;8.10;7.40;;;;;;;2.21;100.00;99963.16;86940;279;137339;-73
2024/03/19 06:06:16;;;;;;;9.50;8.50;;;;;;;2.23;100.00;99959.69;87241;267;24077;-73
2024/03/19 06:08:16;;;;;;;7.20;6.50;;;;;;;2.21;100.00;99976.64;87155;270;136683;-74
2024/03/19 06:10:17;;;;;;;7.80;7.10;;;;;;;2.21;100.00;99965.95;87210;268;24232;-76
2024/03/19 06:12:18;;;;;;;12.10;8.70;;;;;;;2.22;100.00;99974.52;87264;279;136569;-74
2024/03/19 06:14:19;;;;;;;9.60;8.80;;;;;;;2.22;100.00;99976.92;87387;270;22551;-73
2024/03/19 06:16:20;;;;;;;10.50;9.60;;;;;;;2.25;100.00;99983.69;87601;278;136562;-73
2024/03/19 06:18:21;;;;;;;10.70;8.50;;;;;;;2.28;100.00;99989.55;88001;279;22555;-74
2024/03/19 06:20:21;;;;;;;10.60;8.40;;;;;;;2.32;100.00;99993.19;87847;273;136599;-72
2024/03/19 06:22:22;;;;;;;9.50;8.60;;;;;;;2.35;100.00;100004.64;87806;275;23966;-74
2024/03/19 06:24:23;;;;;;;9.90;9.00;;;;;;;2.39;100.00;100006.02;87488;271;137468;-76
2024/03/19 06:26:24;;;;;;;10.00;9.10;;;;;;;2.41;100.00;100007.48;87264;275;23659;-75
2024/03/19 06:28:24;;;;;;;12.20;10.60;;;;;;;2.43;100.00;100005.67;87113;268;137991;-72
2024/03/19 06:30:25;;;;;;;13.60;8.70;;;;;;;2.48;100.00;100015.57;87219;267;23999;-75
2024/03/19 06:32:26;;;;;;;8.10;7.30;;;;;;;2.48;100.00;100007.59;87366;279;136299;-75
2024/03/19 06:34:27;;;;;;;10.10;8.40;;;;;;;2.49;100.00;100007.34;87012;268;23998;-69
2024/03/19 06:36:27;;;;;;;10.50;9.20;;;;;;;2.52;100.00;100006.20;87038;274;136460;-72
2024/03/19 06:38:28;;;;;;;10.20;9.20;;;;;;;2.57;100.00;100010.88;87117;271;23297;-70
2024/03/19 06:40:30;;;;;;;9.40;8.50;;;;;;;2.57;100.00;100017.52;87069;271;137581;-71
2024/03/19 06:42:31;;;;;;;10.70;9.60;;;;;;;2.61;100.00;100024.13;87124;273;22544;-72
2024/03/19 06:44:32;;;;;;;8.20;7.40;;;;;;;2.63;100.00;100035.19;86959;270;137366;-72
2024/03/19 06:46:33;;;;;;;8.30;7.50;;;;;;;2.65;100.00;100042.36;86968;276;25163;-70
2024/03/19 06:48:34;;;;;;;12.20;9.00;;;;;;;2.65;100.00;100048.86;86926;270;136304;-70
2024/03/19 06:50:35;;;;;;;8.90;7.70;;;;;;;2.65;100.00;100047.64;86948;271;24263;-70
2024/03/19 06:52:36;;;;;;;10.80;7.50;;;;;;;2.62;100.00;100052.96;86677;269;136595;-70
2024/03/19 06:54:36;;;;;;;9.10;8.20;;;;;;;2.60;100.00;100054.46;86845;272;24609;-72
2024/03/19 06:56:37;;;;;;;13.10;11.40;;;;;;;2.60;100.00;100049.45;86746;271;136837;-70
2024/03/19 06:58:38;;;;;;;14.20;10.10;;;;;;;2.62;100.00;100051.91;86697;274;24001;-71
2024/03/19 07:00:39;;;;;;;12.30;11.00;;;;;;;2.66;100.00;100050.16;86694;271;136767;-71
2024/03/19 07:02:41;;;;;;;18.70;13.00;;;;;;;2.70;100.00;100049.91;86754;279;23773;-69
2024/03/19 07:04:42;;;;;;;13.50;11.50;;;;;;;2.75;100.00;100055.47;86801;271;136461;-71
2024/03/19 07:06:43;;;;;;;16.20;11.40;;;;;;;2.77;100.00;100061.45;86981;266;24058;-70
2024/03/19 07:08:47;;;;;;;17.10;11.90;;;;;;;2.80;100.00;100053.57;86886;267;136781;-70
2024/03/19 07:10:48;;;;;;;16.90;11.20;;;;;;;2.82;100.00;100054.44;86973;270;22568;-69
2024/03/19 07:12:49;;;;;;;14.50;10.80;;;;;;;2.84;100.00;100056.67;86790;275;136439;-70
2024/03/19 07:14:49;;;;;;;15.90;10.20;;;;;;;2.86;100.00;100060.92;86832;276;25113;-69
2024/03/19 07:16:50;;;;;;;12.20;9.60;;;;;;;2.85;100.00;100064.70;86860;267;136833;-68
2024/03/19 07:18:51;;;;;;;12.60;10.30;;;;;;;2.83;100.00;100063.99;87014;271;23262;-70
2024/03/19 07:20:55;;;;;;;14.70;13.20;;;;;;;2.85;100.00;100069.11;86864;272;137196;-69
2024/03/19 07:22:56;;;;;;;15.40;11.70;;;;;;;2.89;100.00;100069.04;87183;278;24027;-71
2024/03/19 07:24:56;;;;;;;12.40;10.90;;;;;;;2.94;100.00;100071.90;86982;278;137350;-71
2024/03/19 07:26:57;;;;;;;17.10;11.90;;;;;;;2.96;100.00;100074.05;86978;270;25082;-72
2024/03/19 07:28:58;;;;;;;14.90;13.40;;;;;;;2.96;100.00;100074.52;86724;269;138388;-72
2024/03/19 07:30:59;;;;;;;16.40;14.20;;;;;;;2.99;100.00;100076.77;86845;272;22845;-73
2024/03/19 07:33:01;;;;;;;15.70;13.90;;;;;;;3.04;100.00;100087.16;86873;272;137080;-76
2024/03/19 07:35:04;;;;;;;16.20;13.50;;;;;;;3.09;100.00;100084.57;87133;278;22563;-68
2024/03/19 07:37:07;;;;;;;18.90;13.30;;;;;;;3.14;100.00;100087.03;87042;270;136716;-68
2024/03/19 07:39:11;;;;;;;12.80;11.60;;;;;;;3.16;100.00;100088.48;87109;279;22664;-69
2024/03/19 07:41:12;;;;;;;14.10;12.40;;;;;;;3.15;100.00;100091.73;87052;266;137661;-70
2024/03/19 07:43:18;;;;;;;12.20;11.00;;;;;;;3.14;100.00;100095.81;87330;268;22649;-69
2024/03/19 07:45:19;;;;;;;11.80;10.30;;;;;;;3.15;100.00;100098.06;86980;278;137107;-69
2024/03/19 07:47:19;;;;;;;12.90;11.10;;;;;;;3.14;100.00;100098.64;87069;268;24062;-70
2024/03/19 07:49:20;;;;;;;13.20;10.90;;;;;;;3.17;100.00;100100.98;86933;271;136896;-73
2024/03/19 07:51:21;;;;;;;10.40;8.30;;;;;;;3.20;100.00;100105.27;87135;270;25220;-71
2024/03/19 07:53:21;;;;;;;10.50;9.40;;;;;;;3.17;100.00;100099.04;87235;271;137430;-69
2024/03/19 07:55:23;;;;;;;11.10;10.00;;;;;;;3.21;100.00;100096.92;86987;279;22562;-67
2024/03/19 07:57:24;;;;;;;15.60;10.10;;;;;;;3.27;100.00;100096.33;87052;268;137808;-76
2024/03/19 07:59:24;;;;;;;9.80;8.60;;;;;;;3.33;100.00;100106.31;87131;269;24167;-73
2024/03/19 08:01:25;;;;;;;14.10;9.30;;;;;;;3.38;100.00;100107.48;87068;276;137631;-76
2024/03/19 08:03:26;;;;;;;11.10;7.80;;;;;;;3.42;100.00;100107.56;87578;280;22558;-79
2024/03/19 08:05:27;;;;;;;8.90;8.10;;;;;;;3.46;100.00;100108.36;87580;276;138537;-75
2024/03/19 08:07:28;;;;;;;8.20;7.30;;;;;;;3.51;100.00;100112.55;87552;280;22559;-70
2024/03/19 08:09:29;;;;;;;9.70;6.90;;;;;;;3.54;100.00;100106.91;87034;272;136592;-71
2024/03/19 08:11:30;;;;;;;9.00;8.20;;;;;;;3.57;100.00;100112.30;87098;270;22563;-67
2024/03/19 08:13:31;;;;;;;9.70;8.80;;;;;;;3.59;100.00;100112.09;86976;272;136594;-67
2024/03/19 08:15:32;;;;;;;11.90;9.60;;;;;;;3.64;100.00;100108.27;87232;273;22576;-69
2024/03/19 08:17:33;;;;;;;9.00;8.20;;;;;;;3.69;100.00;100105.81;87219;276;136595;-68
2024/03/19 08:19:34;;;;;;;10.70;9.60;;;;;;;3.77;100.00;100119.63;87213;270;22585;-70
2024/03/19 08:21:41;;;;;;;7.90;7.20;;;;;;;3.82;100.00;100128.28;87443;278;136966;-69
2024/03/19 08:23:46;;;;;;;7.80;7.10;;;;;;;3.89;100.00;100129.91;87191;267;24055;-70
2024/03/19 08:25:47;;;;;;;5.40;5.00;;;;;;;3.95;100.00;100139.35;86922;278;137528;-71
2024/03/19 08:27:47;;;;;;;8.10;6.90;;;;;;;3.96;100.00;100143.27;87434;273;22577;-69
2024/03/19 08:29:48;;;;;;;10.30;8.30;;;;;;;4.00;100.00;100148.05;87542;274;137349;-71
2024/03/19 08:31:49;;;;;;;7.70;7.00;;;;;;;4.06;100.00;100148.45;87158;271;22571;-70
2024/03/19 08:33:50;;;;;;;5.90;4.60;;;;;;;4.11;100.00;100154.00;87373;269;136629;-69
2024/03/19 08:35:51;;;;;;;4.90;4.60;;;;;;;4.12;100.00;100157.55;87449;272;23276;-74
2024/03/19 08:37:52;;;;;;;6.30;5.60;;;;;;;4.12;100.00;100166.73;87475;271;138475;-71
2024/03/19 08:39:53;;;;;;;5.70;5.00;;;;;;;4.10;100.00;100169.50;87075;278;22575;-71
2024/03/19 08:41:54;;;;;;;3.90;3.60;;;;;;;4.09;100.00;100172.41;86936;279;136415;-71
2024/03/19 08:43:56;;;;;;;4.50;4.10;;;;;;;4.07;100.00;100177.85;87154;271;25220;-73
2024/03/19 08:45:57;;;;;;;4.00;3.60;;;;;;;4.05;100.00;100178.45;87442;274;136034;-72
2024/03/19 08:47:57;;;;;;;5.10;4.60;;;;;;;4.02;100.00;100176.30;87538;279;25111;-73
2024/03/19 08:49:58;;;;;;;5.00;4.70;;;;;;;4.01;100.00;100176.02;87516;274;137013;-70
2024/03/19 08:51:58;;;;;;;5.20;4.70;;;;;;;4.02;100.00;100176.45;87550;262;22577;-72
2024/03/19 08:53:59;;;;;;;6.70;4.90;;;;;;;4.05;100.00;100173.86;87380;279;136270;-72
2024/03/19 08:56:00;;;;;;;5.10;4.70;;;;;;;4.08;100.00;100169.05;87464;281;25188;-72
2024/03/19 08:58:00;;;;;;;7.10;6.50;;;;;;;4.13;100.00;100169.23;87471;270;136708;-75
2024/03/19 09:00:01;;;;;;;7.40;6.70;;;;;;;4.18;100.00;100169.61;87538;272;25236;-70
2024/03/19 09:02:04;;;;;;;10.40;8.30;;;;;;;4.25;100.00;100173.66;87393;271;136289;-69
2024/03/19 09:04:06;;;;;;;9.60;8.40;;;;;;;4.31;100.00;100175.56;87186;271;138870;-71
2024/03/19 09:06:06;;;;;;;12.10;9.60;;;;;;;4.36;100.00;100178.06;87478;276;22547;-69
2024/03/19 09:08:07;;;;;;;10.80;9.00;;;;;;;4.43;100.00;100180.38;87428;268;136884;-68
2024/03/19 09:10:09;;;;;;;12.90;9.60;;;;;;;4.52;100.00;100185.99;87154;274;22569;-68
2024/03/19 09:12:10;;;;;;;17.00;10.30;;;;;;;4.59;100.00;100180.88;87116;275;137257;-67
2024/03/19 09:14:10;;;;;;;13.30;10.80;;;;;;;4.65;100.00;100184.84;87118;266;25444;-67
2024/03/19 09:16:13;;;;;;;9.70;8.00;;;;;;;4.71;100.00;100190.81;87062;267;137671;-68
2024/03/19 09:18:14;;;;;;;11.80;9.10;;;;;;;4.75;100.00;100198.19;87162;279;25306;-66
2024/03/19 09:20:15;;;;;;;12.70;7.80;;;;;;;4.77;100.00;100202.35;87562;275;137675;-67
2024/03/19 09:22:16;;;;;;;12.10;7.90;;;;;;;4.78;100.00;100208.95;87221;279;24229;-65
2024/03/19 09:24:16;;;;;;;15.80;7.80;;;;;;;4.79;100.00;100205.12;87073;270;137514;-68
2024/03/19 09:26:17;;;;;;;7.90;7.10;;;;;;;4.83;100.00;100213.13;87209;275;22567;-67
2024/03/19 09:28:18;;;;;;;7.90;6.90;;;;;;;4.86;100.00;100218.48;86859;272;138712;-67